sensor_id;sensor_type;location;lat;lon;timestamp;P1;durP1;ratioP1;P2;durP2;ratioP2
42742;SDS011;28397;44.552;-0.848;2024-03-25T00:00:16;20.92;;;9.85;;
42742;SDS011;28397;44.552;-0.848;2024-03-25T00:02:43;18.38;;;9.23;;
42742;SDS011;28397;44.552;-0.848;2024-03-25T00:05:09;15.00;;;8.48;;
42742;SDS011;28397;44.552;-0.848;2024-03-25T00:07:37;16.00;;;7.25;;
42742;SDS011;28397;44.552;-0.848;2024-03-25T00:10:04;14.25;;;7.25;;
42742;SDS011;28397;44.552;-0.848;2024-03-25T00:12:34;15.50;;;6.55;;
42742;SDS011;28397;44.552;-0.848;2024-03-25T00:15:00;13.10;;;6.90;;
42742;SDS011;28397;44.552;-0.848;2024-03-25T00:17:26;17.20;;;7.03;;
42742;SDS011;28397;44.552;-0.848;2024-03-25T00:19:52;14.68;;;6.88;;
42742;SDS011;28397;44.552;-0.848;2024-03-25T00:22:18;16.40;;;6.78;;
42742;SDS011;28397;44.552;-0.848;2024-03-25T00:24:44;13.50;;;6.88;;
42742;SDS011;28397;44.552;-0.848;2024-03-25T00:27:14;16.17;;;7.15;;
42742;SDS011;28397;44.552;-0.848;2024-03-25T00:29:40;15.63;;;7.60;;
42742;SDS011;28397;44.552;-0.848;2024-03-25T00:32:06;16.58;;;7.65;;
42742;SDS011;28397;44.552;-0.848;2024-03-25T00:34:32;17.65;;;9.10;;
42742;SDS011;28397;44.552;-0.848;2024-03-25T00:36:59;17.42;;;9.10;;
42742;SDS011;28397;44.552;-0.848;2024-03-25T00:39:25;19.73;;;9.77;;
42742;SDS011;28397;44.552;-0.848;2024-03-25T00:41:52;21.52;;;10.27;;
42742;SDS011;28397;44.552;-0.848;2024-03-25T00:44:19;18.35;;;9.88;;
42742;SDS011;28397;44.552;-0.848;2024-03-25T00:46:45;18.85;;;10.20;;
42742;SDS011;28397;44.552;-0.848;2024-03-25T00:49:11;18.52;;;10.25;;
42742;SDS011;28397;44.552;-0.848;2024-03-25T00:51:37;15.07;;;10.38;;
42742;SDS011;28397;44.552;-0.848;2024-03-25T00:54:03;20.23;;;9.77;;
42742;SDS011;28397;44.552;-0.848;2024-03-25T00:56:29;19.08;;;9.18;;
42742;SDS011;28397;44.552;-0.848;2024-03-25T00:58:56;19.92;;;8.57;;
42742;SDS011;28397;44.552;-0.848;2024-03-25T01:01:23;16.65;;;8.07;;
42742;SDS011;28397;44.552;-0.848;2024-03-25T01:03:49;15.65;;;8.38;;
42742;SDS011;28397;44.552;-0.848;2024-03-25T01:06:15;15.65;;;7.55;;
42742;SDS011;28397;44.552;-0.848;2024-03-25T01:08:40;16.42;;;7.03;;
42742;SDS011;28397;44.552;-0.848;2024-03-25T01:11:06;12.40;;;6.47;;
42742;SDS011;28397;44.552;-0.848;2024-03-25T01:13:32;13.55;;;6.05;;
42742;SDS011;28397;44.552;-0.848;2024-03-25T01:15:57;15.85;;;6.65;;
42742;SDS011;28397;44.552;-0.848;2024-03-25T01:18:23;14.52;;;6.15;;
42742;SDS011;28397;44.552;-0.848;2024-03-25T01:20:49;11.57;;;5.82;;
42742;SDS011;28397;44.552;-0.848;2024-03-25T01:23:15;17.73;;;6.25;;
42742;SDS011;28397;44.552;-0.848;2024-03-25T01:25:41;12.13;;;5.65;;
42742;SDS011;28397;44.552;-0.848;2024-03-25T01:28:06;9.88;;;5.50;;
42742;SDS011;28397;44.552;-0.848;2024-03-25T01:30:32;11.73;;;5.38;;
42742;SDS011;28397;44.552;-0.848;2024-03-25T01:33:00;15.50;;;6.05;;
42742;SDS011;28397;44.552;-0.848;2024-03-25T01:35:26;15.05;;;6.07;;
42742;SDS011;28397;44.552;-0.848;2024-03-25T01:37:52;13.13;;;6.50;;
42742;SDS011;28397;44.552;-0.848;2024-03-25T01:40:18;11.05;;;6.38;;
42742;SDS011;28397;44.552;-0.848;2024-03-25T01:42:44;13.38;;;6.22;;
42742;SDS011;28397;44.552;-0.848;2024-03-25T01:45:24;17.10;;;7.82;;
42742;SDS011;28397;44.552;-0.848;2024-03-25T01:47:51;14.57;;;7.82;;
42742;SDS011;28397;44.552;-0.848;2024-03-25T01:50:17;14.52;;;7.63;;
42742;SDS011;28397;44.552;-0.848;2024-03-25T01:52:44;19.10;;;7.80;;
42742;SDS011;28397;44.552;-0.848;2024-03-25T01:55:11;15.02;;;7.57;;
42742;SDS011;28397;44.552;-0.848;2024-03-25T01:57:42;17.23;;;8.02;;
42742;SDS011;28397;44.552;-0.848;2024-03-25T02:00:09;18.65;;;8.63;;
42742;SDS011;28397;44.552;-0.848;2024-03-25T02:02:36;16.65;;;7.65;;
42742;SDS011;28397;44.552;-0.848;2024-03-25T02:05:06;17.40;;;8.50;;
42742;SDS011;28397;44.552;-0.848;2024-03-25T02:07:33;16.75;;;8.38;;
42742;SDS011;28397;44.552;-0.848;2024-03-25T02:10:02;15.38;;;8.73;;
42742;SDS011;28397;44.552;-0.848;2024-03-25T02:12:29;19.33;;;9.27;;
42742;SDS011;28397;44.552;-0.848;2024-03-25T02:14:55;14.52;;;8.82;;
42742;SDS011;28397;44.552;-0.848;2024-03-25T02:17:21;17.15;;;8.27;;
42742;SDS011;28397;44.552;-0.848;2024-03-25T02:19:47;16.73;;;8.30;;
42742;SDS011;28397;44.552;-0.848;2024-03-25T02:22:12;15.07;;;7.55;;
42742;SDS011;28397;44.552;-0.848;2024-03-25T02:24:38;13.55;;;7.85;;
42742;SDS011;28397;44.552;-0.848;2024-03-25T02:27:05;15.85;;;7.55;;
42742;SDS011;28397;44.552;-0.848;2024-03-25T02:29:36;15.35;;;7.30;;
42742;SDS011;28397;44.552;-0.848;2024-03-25T02:32:02;12.38;;;6.55;;
42742;SDS011;28397;44.552;-0.848;2024-03-25T02:34:27;12.63;;;6.50;;
42742;SDS011;28397;44.552;-0.848;2024-03-25T02:36:54;15.18;;;6.28;;
42742;SDS011;28397;44.552;-0.848;2024-03-25T02:39:20;11.10;;;6.45;;
42742;SDS011;28397;44.552;-0.848;2024-03-25T02:41:46;12.60;;;6.28;;
42742;SDS011;28397;44.552;-0.848;2024-03-25T02:44:11;13.55;;;6.22;;
42742;SDS011;28397;44.552;-0.848;2024-03-25T02:46:39;9.63;;;6.00;;
42742;SDS011;28397;44.552;-0.848;2024-03-25T02:49:05;11.13;;;5.65;;
42742;SDS011;28397;44.552;-0.848;2024-03-25T02:51:31;11.75;;;5.97;;
42742;SDS011;28397;44.552;-0.848;2024-03-25T02:53:56;16.63;;;6.18;;
42742;SDS011;28397;44.552;-0.848;2024-03-25T02:56:22;8.95;;;5.63;;
42742;SDS011;28397;44.552;-0.848;2024-03-25T02:58:48;15.25;;;5.70;;
42742;SDS011;28397;44.552;-0.848;2024-03-25T03:01:15;11.38;;;5.63;;
42742;SDS011;28397;44.552;-0.848;2024-03-25T03:03:41;14.00;;;5.40;;
42742;SDS011;28397;44.552;-0.848;2024-03-25T03:06:07;13.73;;;5.15;;
42742;SDS011;28397;44.552;-0.848;2024-03-25T03:08:32;11.55;;;5.60;;
42742;SDS011;28397;44.552;-0.848;2024-03-25T03:10:58;10.48;;;5.20;;
42742;SDS011;28397;44.552;-0.848;2024-03-25T03:13:24;12.23;;;5.57;;
42742;SDS011;28397;44.552;-0.848;2024-03-25T03:15:49;11.05;;;5.03;;
42742;SDS011;28397;44.552;-0.848;2024-03-25T03:18:15;10.85;;;5.40;;
42742;SDS011;28397;44.552;-0.848;2024-03-25T03:20:40;10.43;;;5.28;;
42742;SDS011;28397;44.552;-0.848;2024-03-25T03:23:06;14.63;;;5.60;;
42742;SDS011;28397;44.552;-0.848;2024-03-25T03:25:32;10.65;;;5.05;;
42742;SDS011;28397;44.552;-0.848;2024-03-25T03:27:58;9.45;;;4.95;;
42742;SDS011;28397;44.552;-0.848;2024-03-25T03:30:23;10.40;;;4.90;;
42742;SDS011;28397;44.552;-0.848;2024-03-25T03:32:49;9.20;;;5.22;;
42742;SDS011;28397;44.552;-0.848;2024-03-25T03:35:15;12.82;;;5.65;;
42742;SDS011;28397;44.552;-0.848;2024-03-25T03:37:41;11.70;;;5.25;;
42742;SDS011;28397;44.552;-0.848;2024-03-25T03:40:07;13.38;;;5.78;;
42742;SDS011;28397;44.552;-0.848;2024-03-25T03:42:33;14.77;;;6.38;;
42742;SDS011;28397;44.552;-0.848;2024-03-25T03:44:59;13.30;;;6.30;;
42742;SDS011;28397;44.552;-0.848;2024-03-25T03:47:25;12.13;;;5.85;;
42742;SDS011;28397;44.552;-0.848;2024-03-25T03:49:50;12.02;;;5.55;;
42742;SDS011;28397;44.552;-0.848;2024-03-25T03:52:16;11.68;;;5.70;;
42742;SDS011;28397;44.552;-0.848;2024-03-25T03:54:42;15.73;;;5.30;;
42742;SDS011;28397;44.552;-0.848;2024-03-25T03:57:08;14.63;;;5.80;;
42742;SDS011;28397;44.552;-0.848;2024-03-25T03:59:33;13.88;;;5.40;;
42742;SDS011;28397;44.552;-0.848;2024-03-25T04:01:59;10.95;;;5.03;;
42742;SDS011;28397;44.552;-0.848;2024-03-25T04:04:25;11.32;;;4.75;;
42742;SDS011;28397;44.552;-0.848;2024-03-25T04:06:51;12.73;;;4.55;;
42742;SDS011;28397;44.552;-0.848;2024-03-25T04:09:17;9.93;;;4.80;;
42742;SDS011;28397;44.552;-0.848;2024-03-25T04:11:43;10.40;;;3.80;;
42742;SDS011;28397;44.552;-0.848;2024-03-25T04:14:08;10.82;;;4.40;;
42742;SDS011;28397;44.552;-0.848;2024-03-25T04:16:35;9.57;;;3.53;;
42742;SDS011;28397;44.552;-0.848;2024-03-25T04:19:01;11.48;;;4.03;;
42742;SDS011;28397;44.552;-0.848;2024-03-25T04:21:26;9.00;;;3.95;;
42742;SDS011;28397;44.552;-0.848;2024-03-25T04:23:52;10.55;;;3.90;;
42742;SDS011;28397;44.552;-0.848;2024-03-25T04:26:19;11.70;;;3.85;;
42742;SDS011;28397;44.552;-0.848;2024-03-25T04:28:44;11.18;;;3.80;;
42742;SDS011;28397;44.552;-0.848;2024-03-25T04:31:10;9.52;;;3.70;;
42742;SDS011;28397;44.552;-0.848;2024-03-25T04:33:36;11.40;;;4.22;;
42742;SDS011;28397;44.552;-0.848;2024-03-25T04:36:01;12.73;;;4.43;;
42742;SDS011;28397;44.552;-0.848;2024-03-25T04:38:27;11.45;;;4.35;;
42742;SDS011;28397;44.552;-0.848;2024-03-25T04:40:53;11.23;;;4.22;;
42742;SDS011;28397;44.552;-0.848;2024-03-25T04:43:19;10.70;;;4.45;;
42742;SDS011;28397;44.552;-0.848;2024-03-25T04:45:45;11.20;;;4.10;;
42742;SDS011;28397;44.552;-0.848;2024-03-25T04:48:11;12.40;;;4.35;;
42742;SDS011;28397;44.552;-0.848;2024-03-25T04:50:37;15.15;;;4.32;;
42742;SDS011;28397;44.552;-0.848;2024-03-25T04:53:02;11.20;;;4.25;;
42742;SDS011;28397;44.552;-0.848;2024-03-25T04:55:28;9.50;;;3.50;;
42742;SDS011;28397;44.552;-0.848;2024-03-25T04:57:54;9.68;;;3.30;;
42742;SDS011;28397;44.552;-0.848;2024-03-25T05:00:19;8.38;;;3.45;;
42742;SDS011;28397;44.552;-0.848;2024-03-25T05:02:45;5.47;;;2.80;;
42742;SDS011;28397;44.552;-0.848;2024-03-25T05:05:11;9.27;;;2.83;;
42742;SDS011;28397;44.552;-0.848;2024-03-25T05:07:36;10.63;;;2.85;;
42742;SDS011;28397;44.552;-0.848;2024-03-25T05:10:02;6.80;;;2.80;;
42742;SDS011;28397;44.552;-0.848;2024-03-25T05:12:28;9.10;;;3.47;;
42742;SDS011;28397;44.552;-0.848;2024-03-25T05:14:58;6.22;;;2.40;;
42742;SDS011;28397;44.552;-0.848;2024-03-25T05:17:24;7.53;;;2.83;;
42742;SDS011;28397;44.552;-0.848;2024-03-25T05:19:49;8.52;;;2.83;;
42742;SDS011;28397;44.552;-0.848;2024-03-25T05:22:16;8.20;;;2.60;;
42742;SDS011;28397;44.552;-0.848;2024-03-25T05:24:41;8.45;;;2.75;;
42742;SDS011;28397;44.552;-0.848;2024-03-25T05:27:07;9.95;;;2.70;;
42742;SDS011;28397;44.552;-0.848;2024-03-25T05:29:33;6.82;;;2.60;;
42742;SDS011;28397;44.552;-0.848;2024-03-25T05:31:59;8.35;;;2.60;;
42742;SDS011;28397;44.552;-0.848;2024-03-25T05:34:26;6.65;;;2.50;;
42742;SDS011;28397;44.552;-0.848;2024-03-25T05:36:53;8.95;;;2.75;;
42742;SDS011;28397;44.552;-0.848;2024-03-25T05:39:19;8.90;;;2.90;;
42742;SDS011;28397;44.552;-0.848;2024-03-25T05:41:45;10.32;;;2.60;;
42742;SDS011;28397;44.552;-0.848;2024-03-25T05:44:11;9.23;;;2.47;;
42742;SDS011;28397;44.552;-0.848;2024-03-25T05:46:37;10.65;;;2.95;;
42742;SDS011;28397;44.552;-0.848;2024-03-25T05:49:04;6.20;;;2.60;;
42742;SDS011;28397;44.552;-0.848;2024-03-25T05:51:30;8.50;;;2.83;;
42742;SDS011;28397;44.552;-0.848;2024-03-25T05:53:58;8.73;;;2.60;;
42742;SDS011;28397;44.552;-0.848;2024-03-25T05:56:24;8.57;;;2.80;;
42742;SDS011;28397;44.552;-0.848;2024-03-25T05:58:55;6.80;;;2.90;;
42742;SDS011;28397;44.552;-0.848;2024-03-25T06:01:24;8.50;;;2.88;;
42742;SDS011;28397;44.552;-0.848;2024-03-25T06:03:50;8.18;;;2.67;;
42742;SDS011;28397;44.552;-0.848;2024-03-25T06:06:16;5.88;;;2.40;;
42742;SDS011;28397;44.552;-0.848;2024-03-25T06:08:42;6.25;;;3.17;;
42742;SDS011;28397;44.552;-0.848;2024-03-25T06:11:08;9.07;;;2.60;;
42742;SDS011;28397;44.552;-0.848;2024-03-25T06:13:34;7.00;;;3.15;;
42742;SDS011;28397;44.552;-0.848;2024-03-25T06:15:59;8.02;;;2.78;;
42742;SDS011;28397;44.552;-0.848;2024-03-25T06:18:25;8.55;;;3.03;;
42742;SDS011;28397;44.552;-0.848;2024-03-25T06:20:51;12.25;;;3.03;;
42742;SDS011;28397;44.552;-0.848;2024-03-25T06:23:26;8.18;;;3.10;;
42742;SDS011;28397;44.552;-0.848;2024-03-25T06:25:53;8.10;;;3.00;;
42742;SDS011;28397;44.552;-0.848;2024-03-25T06:28:20;8.88;;;3.00;;
42742;SDS011;28397;44.552;-0.848;2024-03-25T06:30:46;6.63;;;3.08;;
42742;SDS011;28397;44.552;-0.848;2024-03-25T06:33:31;6.78;;;2.50;;
42742;SDS011;28397;44.552;-0.848;2024-03-25T06:36:16;11.20;;;4.05;;
42742;SDS011;28397;44.552;-0.848;2024-03-25T06:38:42;9.30;;;3.33;;
42742;SDS011;28397;44.552;-0.848;2024-03-25T06:41:08;10.18;;;3.95;;
42742;SDS011;28397;44.552;-0.848;2024-03-25T06:43:34;7.25;;;2.80;;
42742;SDS011;28397;44.552;-0.848;2024-03-25T06:46:04;8.05;;;2.90;;
42742;SDS011;28397;44.552;-0.848;2024-03-25T06:48:30;11.38;;;2.75;;
42742;SDS011;28397;44.552;-0.848;2024-03-25T06:50:56;8.50;;;2.83;;
42742;SDS011;28397;44.552;-0.848;2024-03-25T06:53:23;9.05;;;2.80;;
42742;SDS011;28397;44.552;-0.848;2024-03-25T06:58:19;7.40;;;2.65;;
42742;SDS011;28397;44.552;-0.848;2024-03-25T07:00:46;7.75;;;2.80;;
42742;SDS011;28397;44.552;-0.848;2024-03-25T07:03:13;7.95;;;2.60;;
42742;SDS011;28397;44.552;-0.848;2024-03-25T07:05:45;9.38;;;2.72;;
42742;SDS011;28397;44.552;-0.848;2024-03-25T07:08:12;7.85;;;2.85;;
42742;SDS011;28397;44.552;-0.848;2024-03-25T07:10:38;10.23;;;2.60;;
42742;SDS011;28397;44.552;-0.848;2024-03-25T07:13:06;9.40;;;2.58;;
42742;SDS011;28397;44.552;-0.848;2024-03-25T07:15:32;6.43;;;2.33;;
42742;SDS011;28397;44.552;-0.848;2024-03-25T07:17:57;8.63;;;2.85;;
42742;SDS011;28397;44.552;-0.848;2024-03-25T07:20:23;5.50;;;2.40;;
42742;SDS011;28397;44.552;-0.848;2024-03-25T07:22:49;8.63;;;2.63;;
42742;SDS011;28397;44.552;-0.848;2024-03-25T07:25:15;7.05;;;2.45;;
42742;SDS011;28397;44.552;-0.848;2024-03-25T07:27:41;7.28;;;2.35;;
42742;SDS011;28397;44.552;-0.848;2024-03-25T07:30:07;5.82;;;2.20;;
42742;SDS011;28397;44.552;-0.848;2024-03-25T07:32:33;10.57;;;2.33;;
42742;SDS011;28397;44.552;-0.848;2024-03-25T07:35:00;6.00;;;2.20;;
42742;SDS011;28397;44.552;-0.848;2024-03-25T07:37:25;6.03;;;2.30;;
42742;SDS011;28397;44.552;-0.848;2024-03-25T07:39:51;4.25;;;2.00;;
42742;SDS011;28397;44.552;-0.848;2024-03-25T07:42:17;8.95;;;2.25;;
42742;SDS011;28397;44.552;-0.848;2024-03-25T07:44:43;8.82;;;2.30;;
42742;SDS011;28397;44.552;-0.848;2024-03-25T07:47:09;8.85;;;2.40;;
42742;SDS011;28397;44.552;-0.848;2024-03-25T07:49:35;6.50;;;2.13;;
42742;SDS011;28397;44.552;-0.848;2024-03-25T07:52:01;6.18;;;2.38;;
42742;SDS011;28397;44.552;-0.848;2024-03-25T07:54:28;5.22;;;2.10;;
42742;SDS011;28397;44.552;-0.848;2024-03-25T07:56:54;5.60;;;2.50;;
42742;SDS011;28397;44.552;-0.848;2024-03-25T07:59:19;6.18;;;2.20;;
42742;SDS011;28397;44.552;-0.848;2024-03-25T08:01:45;6.38;;;2.22;;
42742;SDS011;28397;44.552;-0.848;2024-03-25T08:04:11;4.00;;;1.95;;
42742;SDS011;28397;44.552;-0.848;2024-03-25T08:06:36;7.53;;;2.10;;
42742;SDS011;28397;44.552;-0.848;2024-03-25T08:09:02;3.88;;;1.65;;
42742;SDS011;28397;44.552;-0.848;2024-03-25T08:11:31;6.32;;;2.20;;
42742;SDS011;28397;44.552;-0.848;2024-03-25T08:13:57;7.03;;;1.90;;
42742;SDS011;28397;44.552;-0.848;2024-03-25T08:16:23;4.20;;;1.88;;
42742;SDS011;28397;44.552;-0.848;2024-03-25T08:18:49;4.80;;;1.90;;
42742;SDS011;28397;44.552;-0.848;2024-03-25T08:21:15;7.07;;;2.45;;
42742;SDS011;28397;44.552;-0.848;2024-03-25T08:23:44;6.82;;;2.10;;
42742;SDS011;28397;44.552;-0.848;2024-03-25T08:26:10;4.15;;;1.80;;
42742;SDS011;28397;44.552;-0.848;2024-03-25T08:28:36;8.30;;;2.25;;
42742;SDS011;28397;44.552;-0.848;2024-03-25T08:31:02;6.45;;;2.20;;
42742;SDS011;28397;44.552;-0.848;2024-03-25T08:33:30;6.93;;;2.40;;
42742;SDS011;28397;44.552;-0.848;2024-03-25T08:35:55;4.70;;;2.03;;
42742;SDS011;28397;44.552;-0.848;2024-03-25T08:38:21;4.97;;;1.90;;
42742;SDS011;28397;44.552;-0.848;2024-03-25T08:40:47;5.07;;;2.30;;
42742;SDS011;28397;44.552;-0.848;2024-03-25T08:43:12;4.80;;;1.90;;
42742;SDS011;28397;44.552;-0.848;2024-03-25T08:45:38;4.68;;;1.92;;
42742;SDS011;28397;44.552;-0.848;2024-03-25T08:48:05;7.72;;;2.08;;
42742;SDS011;28397;44.552;-0.848;2024-03-25T08:50:31;4.95;;;2.13;;
42742;SDS011;28397;44.552;-0.848;2024-03-25T08:52:57;4.10;;;1.70;;
42742;SDS011;28397;44.552;-0.848;2024-03-25T08:55:23;4.25;;;2.10;;
42742;SDS011;28397;44.552;-0.848;2024-03-25T08:57:49;3.70;;;1.70;;
42742;SDS011;28397;44.552;-0.848;2024-03-25T09:00:16;3.85;;;1.65;;
42742;SDS011;28397;44.552;-0.848;2024-03-25T09:02:43;4.82;;;2.10;;
42742;SDS011;28397;44.552;-0.848;2024-03-25T09:05:09;5.10;;;1.88;;
42742;SDS011;28397;44.552;-0.848;2024-03-25T09:07:35;5.68;;;1.98;;
42742;SDS011;28397;44.552;-0.848;2024-03-25T09:10:01;3.97;;;2.03;;
42742;SDS011;28397;44.552;-0.848;2024-03-25T09:12:46;5.20;;;1.98;;
42742;SDS011;28397;44.552;-0.848;2024-03-25T09:15:11;2.80;;;1.80;;
42742;SDS011;28397;44.552;-0.848;2024-03-25T09:17:37;3.35;;;1.60;;
42742;SDS011;28397;44.552;-0.848;2024-03-25T09:20:04;3.50;;;1.67;;
42742;SDS011;28397;44.552;-0.848;2024-03-25T09:22:41;4.30;;;1.80;;
42742;SDS011;28397;44.552;-0.848;2024-03-25T09:25:09;5.40;;;1.85;;
42742;SDS011;28397;44.552;-0.848;2024-03-25T09:27:35;3.83;;;1.75;;
42742;SDS011;28397;44.552;-0.848;2024-03-25T09:30:01;3.80;;;1.80;;
42742;SDS011;28397;44.552;-0.848;2024-03-25T09:32:28;4.72;;;1.90;;
42742;SDS011;28397;44.552;-0.848;2024-03-25T09:34:56;3.60;;;1.90;;
42742;SDS011;28397;44.552;-0.848;2024-03-25T09:37:22;4.78;;;1.67;;
42742;SDS011;28397;44.552;-0.848;2024-03-25T09:39:47;4.45;;;1.90;;
42742;SDS011;28397;44.552;-0.848;2024-03-25T09:42:18;4.38;;;1.85;;
42742;SDS011;28397;44.552;-0.848;2024-03-25T09:44:51;5.35;;;1.77;;
42742;SDS011;28397;44.552;-0.848;2024-03-25T09:47:20;3.13;;;1.63;;
42742;SDS011;28397;44.552;-0.848;2024-03-25T09:49:47;6.22;;;2.40;;
42742;SDS011;28397;44.552;-0.848;2024-03-25T09:52:14;5.60;;;2.03;;
42742;SDS011;28397;44.552;-0.848;2024-03-25T09:54:40;4.93;;;1.90;;
42742;SDS011;28397;44.552;-0.848;2024-03-25T09:57:06;5.65;;;1.90;;
42742;SDS011;28397;44.552;-0.848;2024-03-25T09:59:33;3.03;;;1.50;;
42742;SDS011;28397;44.552;-0.848;2024-03-25T10:01:59;5.32;;;1.73;;
42742;SDS011;28397;44.552;-0.848;2024-03-25T10:04:25;4.65;;;1.90;;
42742;SDS011;28397;44.552;-0.848;2024-03-25T10:06:51;4.13;;;1.60;;
42742;SDS011;28397;44.552;-0.848;2024-03-25T10:09:20;4.18;;;1.80;;
42742;SDS011;28397;44.552;-0.848;2024-03-25T10:11:49;5.22;;;1.90;;
42742;SDS011;28397;44.552;-0.848;2024-03-25T10:14:15;6.72;;;2.35;;
42742;SDS011;28397;44.552;-0.848;2024-03-25T10:16:41;7.15;;;1.95;;
42742;SDS011;28397;44.552;-0.848;2024-03-25T10:19:07;5.60;;;1.80;;
42742;SDS011;28397;44.552;-0.848;2024-03-25T10:21:34;4.20;;;1.60;;
42742;SDS011;28397;44.552;-0.848;2024-03-25T10:24:00;5.05;;;1.70;;
42742;SDS011;28397;44.552;-0.848;2024-03-25T10:26:29;4.53;;;1.80;;
42742;SDS011;28397;44.552;-0.848;2024-03-25T10:29:06;5.90;;;1.70;;
42742;SDS011;28397;44.552;-0.848;2024-03-25T10:31:33;3.63;;;1.40;;
42742;SDS011;28397;44.552;-0.848;2024-03-25T10:33:59;4.72;;;1.88;;
42742;SDS011;28397;44.552;-0.848;2024-03-25T10:36:25;3.40;;;1.50;;
42742;SDS011;28397;44.552;-0.848;2024-03-25T10:38:55;3.00;;;1.50;;
42742;SDS011;28397;44.552;-0.848;2024-03-25T10:41:21;4.10;;;1.70;;
42742;SDS011;28397;44.552;-0.848;2024-03-25T10:43:48;5.03;;;1.77;;
42742;SDS011;28397;44.552;-0.848;2024-03-25T10:46:18;3.95;;;1.40;;
42742;SDS011;28397;44.552;-0.848;2024-03-25T10:48:54;5.70;;;1.55;;
42742;SDS011;28397;44.552;-0.848;2024-03-25T10:51:21;5.03;;;1.55;;
42742;SDS011;28397;44.552;-0.848;2024-03-25T10:53:52;4.10;;;1.45;;
42742;SDS011;28397;44.552;-0.848;2024-03-25T10:56:21;4.85;;;1.50;;
42742;SDS011;28397;44.552;-0.848;2024-03-25T10:58:49;6.05;;;1.60;;
42742;SDS011;28397;44.552;-0.848;2024-03-25T11:01:17;5.82;;;1.95;;
42742;SDS011;28397;44.552;-0.848;2024-03-25T11:03:45;3.85;;;1.20;;
42742;SDS011;28397;44.552;-0.848;2024-03-25T11:06:13;6.40;;;1.85;;
42742;SDS011;28397;44.552;-0.848;2024-03-25T11:08:39;4.20;;;1.70;;
42742;SDS011;28397;44.552;-0.848;2024-03-25T11:11:06;4.03;;;1.38;;
42742;SDS011;28397;44.552;-0.848;2024-03-25T11:13:32;3.15;;;1.60;;
42742;SDS011;28397;44.552;-0.848;2024-03-25T11:15:59;3.25;;;1.85;;
42742;SDS011;28397;44.552;-0.848;2024-03-25T11:18:26;3.72;;;1.70;;
42742;SDS011;28397;44.552;-0.848;2024-03-25T11:21:00;3.60;;;1.55;;
42742;SDS011;28397;44.552;-0.848;2024-03-25T11:23:38;3.50;;;1.60;;
42742;SDS011;28397;44.552;-0.848;2024-03-25T11:26:16;3.75;;;1.60;;
42742;SDS011;28397;44.552;-0.848;2024-03-25T11:28:45;3.00;;;1.30;;
42742;SDS011;28397;44.552;-0.848;2024-03-25T11:31:11;3.70;;;1.50;;
42742;SDS011;28397;44.552;-0.848;2024-03-25T11:33:40;5.97;;;1.50;;
42742;SDS011;28397;44.552;-0.848;2024-03-25T11:36:06;2.60;;;1.50;;
42742;SDS011;28397;44.552;-0.848;2024-03-25T11:38:32;3.40;;;1.80;;
42742;SDS011;28397;44.552;-0.848;2024-03-25T11:40:58;4.55;;;1.98;;
42742;SDS011;28397;44.552;-0.848;2024-03-25T11:43:23;4.43;;;1.95;;
42742;SDS011;28397;44.552;-0.848;2024-03-25T11:45:50;3.30;;;1.70;;
42742;SDS011;28397;44.552;-0.848;2024-03-25T11:48:16;2.88;;;1.65;;
42742;SDS011;28397;44.552;-0.848;2024-03-25T11:50:45;3.63;;;1.77;;
42742;SDS011;28397;44.552;-0.848;2024-03-25T11:53:12;2.65;;;1.50;;
42742;SDS011;28397;44.552;-0.848;2024-03-25T11:55:40;2.97;;;1.33;;
42742;SDS011;28397;44.552;-0.848;2024-03-25T11:58:07;3.35;;;1.45;;
42742;SDS011;28397;44.552;-0.848;2024-03-25T12:00:33;3.65;;;1.38;;
42742;SDS011;28397;44.552;-0.848;2024-03-25T12:02:59;3.17;;;1.35;;
42742;SDS011;28397;44.552;-0.848;2024-03-25T12:05:25;3.00;;;1.55;;
42742;SDS011;28397;44.552;-0.848;2024-03-25T12:07:51;3.33;;;1.60;;
42742;SDS011;28397;44.552;-0.848;2024-03-25T12:10:16;4.05;;;1.33;;
42742;SDS011;28397;44.552;-0.848;2024-03-25T12:13:01;4.13;;;1.58;;
42742;SDS011;28397;44.552;-0.848;2024-03-25T12:15:27;3.42;;;1.60;;
42742;SDS011;28397;44.552;-0.848;2024-03-25T12:17:53;3.55;;;1.67;;
42742;SDS011;28397;44.552;-0.848;2024-03-25T12:20:19;3.92;;;1.95;;
42742;SDS011;28397;44.552;-0.848;2024-03-25T12:22:45;3.03;;;1.80;;
42742;SDS011;28397;44.552;-0.848;2024-03-25T12:25:11;3.42;;;1.90;;
42742;SDS011;28397;44.552;-0.848;2024-03-25T12:27:37;5.10;;;1.83;;
42742;SDS011;28397;44.552;-0.848;2024-03-25T12:30:05;3.67;;;1.58;;
42742;SDS011;28397;44.552;-0.848;2024-03-25T12:32:38;3.85;;;1.35;;
42742;SDS011;28397;44.552;-0.848;2024-03-25T12:35:09;9.50;;;2.30;;
42742;SDS011;28397;44.552;-0.848;2024-03-25T12:37:40;7.95;;;2.40;;
42742;SDS011;28397;44.552;-0.848;2024-03-25T12:40:07;3.83;;;2.30;;
42742;SDS011;28397;44.552;-0.848;2024-03-25T12:42:36;4.47;;;2.38;;
42742;SDS011;28397;44.552;-0.848;2024-03-25T12:45:02;2.60;;;2.17;;
42742;SDS011;28397;44.552;-0.848;2024-03-25T12:47:29;3.28;;;2.40;;
42742;SDS011;28397;44.552;-0.848;2024-03-25T12:49:56;6.32;;;2.88;;
42742;SDS011;28397;44.552;-0.848;2024-03-25T12:52:22;6.22;;;3.03;;
42742;SDS011;28397;44.552;-0.848;2024-03-25T12:54:48;11.15;;;3.00;;
42742;SDS011;28397;44.552;-0.848;2024-03-25T12:57:14;7.43;;;3.38;;
42742;SDS011;28397;44.552;-0.848;2024-03-25T12:59:40;3.22;;;2.50;;
42742;SDS011;28397;44.552;-0.848;2024-03-25T13:02:06;5.45;;;3.22;;
42742;SDS011;28397;44.552;-0.848;2024-03-25T13:04:35;3.92;;;2.10;;
42742;SDS011;28397;44.552;-0.848;2024-03-25T13:07:02;4.97;;;2.25;;
42742;SDS011;28397;44.552;-0.848;2024-03-25T13:09:28;4.20;;;2.88;;
42742;SDS011;28397;44.552;-0.848;2024-03-25T13:11:55;4.90;;;3.63;;
42742;SDS011;28397;44.552;-0.848;2024-03-25T13:14:22;5.40;;;3.80;;
42742;SDS011;28397;44.552;-0.848;2024-03-25T13:16:47;5.05;;;3.58;;
42742;SDS011;28397;44.552;-0.848;2024-03-25T13:19:13;6.07;;;4.15;;
42742;SDS011;28397;44.552;-0.848;2024-03-25T13:21:39;13.02;;;8.68;;
42742;SDS011;28397;44.552;-0.848;2024-03-25T13:24:08;16.30;;;10.05;;
42742;SDS011;28397;44.552;-0.848;2024-03-25T13:26:33;17.17;;;11.70;;
42742;SDS011;28397;44.552;-0.848;2024-03-25T13:28:59;13.45;;;10.02;;
42742;SDS011;28397;44.552;-0.848;2024-03-25T13:31:25;11.38;;;8.52;;
42742;SDS011;28397;44.552;-0.848;2024-03-25T13:33:51;7.00;;;5.70;;
42742;SDS011;28397;44.552;-0.848;2024-03-25T13:36:16;7.25;;;5.80;;
42742;SDS011;28397;44.552;-0.848;2024-03-25T13:38:43;6.80;;;5.63;;
42742;SDS011;28397;44.552;-0.848;2024-03-25T13:41:15;6.07;;;4.75;;
42742;SDS011;28397;44.552;-0.848;2024-03-25T13:43:44;4.13;;;3.63;;
42742;SDS011;28397;44.552;-0.848;2024-03-25T13:46:10;7.07;;;2.70;;
42742;SDS011;28397;44.552;-0.848;2024-03-25T13:48:37;13.93;;;2.90;;
42742;SDS011;28397;44.552;-0.848;2024-03-25T13:51:03;6.55;;;2.10;;
42742;SDS011;28397;44.552;-0.848;2024-03-25T13:53:29;9.20;;;2.10;;
42742;SDS011;28397;44.552;-0.848;2024-03-25T13:55:55;13.18;;;2.58;;
42742;SDS011;28397;44.552;-0.848;2024-03-25T13:58:20;7.85;;;2.30;;
42742;SDS011;28397;44.552;-0.848;2024-03-25T14:00:46;4.13;;;2.70;;
42742;SDS011;28397;44.552;-0.848;2024-03-25T14:03:12;7.80;;;2.80;;
42742;SDS011;28397;44.552;-0.848;2024-03-25T14:05:37;6.97;;;2.40;;
42742;SDS011;28397;44.552;-0.848;2024-03-25T14:08:03;6.57;;;4.30;;
42742;SDS011;28397;44.552;-0.848;2024-03-25T14:10:29;5.22;;;3.50;;
42742;SDS011;28397;44.552;-0.848;2024-03-25T14:12:55;4.80;;;3.75;;
42742;SDS011;28397;44.552;-0.848;2024-03-25T14:15:21;5.15;;;2.95;;
42742;SDS011;28397;44.552;-0.848;2024-03-25T14:17:46;6.25;;;3.60;;
42742;SDS011;28397;44.552;-0.848;2024-03-25T14:20:12;5.85;;;2.55;;
42742;SDS011;28397;44.552;-0.848;2024-03-25T14:22:38;7.78;;;2.35;;
42742;SDS011;28397;44.552;-0.848;2024-03-25T14:25:04;7.25;;;2.10;;
42742;SDS011;28397;44.552;-0.848;2024-03-25T14:27:30;8.27;;;2.10;;